sensor_id;sensor_type;location;lat;lon;timestamp;pressure;altitude;pressure_sealevel;temperature;humidity
49311;BME280;35177;45.900;5.946;2023-02-17T00:00:51;98892.28;;;-1.89;100.00
49311;BME280;35177;45.900;5.946;2023-02-17T00:03:17;98889.34;;;-1.87;100.00
49311;BME280;35177;45.900;5.946;2023-02-17T00:05:42;98893.16;;;-1.82;100.00
49311;BME280;35177;45.900;5.946;2023-02-17T00:08:08;98891.16;;;-1.59;100.00
49311;BME280;35177;45.900;5.946;2023-02-17T00:10:33;98893.22;;;-1.62;100.00
49311;BME280;35177;45.900;5.946;2023-02-17T00:12:59;98893.69;;;-2.00;100.00
49311;BME280;35177;45.900;5.946;2023-02-17T00:15:24;98893.53;;;-1.91;100.00
49311;BME280;35177;45.900;5.946;2023-02-17T00:17:50;98898.19;;;-1.79;100.00
49311;BME280;35177;45.900;5.946;2023-02-17T00:20:15;98887.34;;;-1.72;100.00
49311;BME280;35177;45.900;5.946;2023-02-17T00:22:40;98890.88;;;-1.71;100.00
49311;BME280;35177;45.900;5.946;2023-02-17T00:25:06;98900.25;;;-1.87;100.00
49311;BME280;35177;45.900;5.946;2023-02-17T00:27:32;98897.50;;;-1.94;100.00
49311;BME280;35177;45.900;5.946;2023-02-17T00:29:57;98896.88;;;-1.89;100.00
49311;BME280;35177;45.900;5.946;2023-02-17T00:32:23;98897.06;;;-1.98;100.00
49311;BME280;35177;45.900;5.946;2023-02-17T00:34:49;98894.06;;;-2.10;100.00
49311;BME280;35177;45.900;5.946;2023-02-17T00:37:15;98887.53;;;-2.22;100.00
49311;BME280;35177;45.900;5.946;2023-02-17T00:39:41;98890.97;;;-2.00;100.00
49311;BME280;35177;45.900;5.946;2023-02-17T00:42:06;98898.47;;;-2.08;100.00
49311;BME280;35177;45.900;5.946;2023-02-17T00:44:32;98904.81;;;-1.95;100.00
49311;BME280;35177;45.900;5.946;2023-02-17T00:46:57;98906.22;;;-2.05;100.00
49311;BME280;35177;45.900;5.946;2023-02-17T00:49:25;98904.19;;;-1.97;100.00
49311;BME280;35177;45.900;5.946;2023-02-17T00:51:51;98902.81;;;-1.79;100.00
49311;BME280;35177;45.900;5.946;2023-02-17T00:54:17;98909.56;;;-2.10;100.00
49311;BME280;35177;45.900;5.946;2023-02-17T00:56:43;98905.47;;;-2.28;100.00
49311;BME280;35177;45.900;5.946;2023-02-17T00:59:08;98912.94;;;-2.36;100.00
49311;BME280;35177;45.900;5.946;2023-02-17T01:01:34;98903.72;;;-2.42;100.00
49311;BME280;35177;45.900;5.946;2023-02-17T01:04:00;98915.66;;;-2.36;100.00
49311;BME280;35177;45.900;5.946;2023-02-17T01:06:31;98919.22;;;-2.36;100.00
49311;BME280;35177;45.900;5.946;2023-02-17T01:08:57;98914.22;;;-1.97;100.00
49311;BME280;35177;45.900;5.946;2023-02-17T01:11:26;98918.06;;;-2.20;100.00
49311;BME280;35177;45.900;5.946;2023-02-17T01:13:53;98913.94;;;-2.09;100.00
49311;BME280;35177;45.900;5.946;2023-02-17T01:16:24;98914.50;;;-2.20;100.00
49311;BME280;35177;45.900;5.946;2023-02-17T01:18:50;98918.75;;;-2.11;100.00
49311;BME280;35177;45.900;5.946;2023-02-17T01:21:21;98918.97;;;-2.06;100.00
49311;BME280;35177;45.900;5.946;2023-02-17T01:23:51;98919.13;;;-2.14;100.00
49311;BME280;35177;45.900;5.946;2023-02-17T01:26:20;98919.78;;;-2.12;100.00
49311;BME280;35177;45.900;5.946;2023-02-17T01:28:47;98918.91;;;-2.19;100.00
49311;BME280;35177;45.900;5.946;2023-02-17T01:31:13;98923.66;;;-2.28;100.00
49311;BME280;35177;45.900;5.946;2023-02-17T01:33:39;98927.03;;;-2.26;100.00
49311;BME280;35177;45.900;5.946;2023-02-17T01:36:07;98916.63;;;-2.16;100.00
49311;BME280;35177;45.900;5.946;2023-02-17T01:38:34;98923.78;;;-2.08;100.00
49311;BME280;35177;45.900;5.946;2023-02-17T01:41:00;98917.53;;;-2.37;100.00
49311;BME280;35177;45.900;5.946;2023-02-17T01:43:27;98920.88;;;-2.35;100.00
49311;BME280;35177;45.900;5.946;2023-02-17T01:45:55;98917.22;;;-2.20;100.00
49311;BME280;35177;45.900;5.946;2023-02-17T01:48:23;98910.50;;;-2.24;100.00
49311;BME280;35177;45.900;5.946;2023-02-17T01:50:52;98911.84;;;-2.14;100.00
49311;BME280;35177;45.900;5.946;2023-02-17T01:53:23;98909.13;;;-2.14;100.00
49311;BME280;35177;45.900;5.946;2023-02-17T01:55:51;98915.59;;;-2.15;100.00
49311;BME280;35177;45.900;5.946;2023-02-17T01:58:18;98925.13;;;-2.32;100.00
49311;BME280;35177;45.900;5.946;2023-02-17T02:00:46;98914.06;;;-2.24;100.00
49311;BME280;35177;45.900;5.946;2023-02-17T02:03:13;98915.28;;;-2.33;100.00
49311;BME280;35177;45.900;5.946;2023-02-17T02:05:40;98909.19;;;-2.35;100.00
49311;BME280;35177;45.900;5.946;2023-02-17T02:08:07;98922.34;;;-2.39;100.00
49311;BME280;35177;45.900;5.946;2023-02-17T02:10:33;98915.66;;;-2.36;100.00
49311;BME280;35177;45.900;5.946;2023-02-17T02:12:58;98909.88;;;-1.91;100.00
49311;BME280;35177;45.900;5.946;2023-02-17T02:15:30;98905.97;;;-2.17;100.00
49311;BME280;35177;45.900;5.946;2023-02-17T02:18:26;98907.13;;;-2.33;100.00
49311;BME280;35177;45.900;5.946;2023-02-17T02:23:57;98906.84;;;-2.38;100.00
49311;BME280;35177;45.900;5.946;2023-02-17T02:34:45;98918.44;;;-2.58;100.00
49311;BME280;35177;45.900;5.946;2023-02-17T02:37:26;98912.03;;;-2.44;100.00
49311;BME280;35177;45.900;5.946;2023-02-17T02:39:57;98908.75;;;-2.67;100.00
49311;BME280;35177;45.900;5.946;2023-02-17T02:42:26;98898.19;;;-2.55;100.00
49311;BME280;35177;45.900;5.946;2023-02-17T02:44:52;98903.63;;;-2.84;100.00
49311;BME280;35177;45.900;5.946;2023-02-17T02:50:09;98899.59;;;-2.60;100.00
49311;BME280;35177;45.900;5.946;2023-02-17T02:55:30;98909.19;;;-2.64;100.00
49311;BME280;35177;45.900;5.946;2023-02-17T03:01:10;98899.91;;;-2.76;100.00
49311;BME280;35177;45.900;5.946;2023-02-17T03:04:01;98895.16;;;-2.96;100.00
49311;BME280;35177;45.900;5.946;2023-02-17T03:09:09;98907.91;;;-2.68;100.00
49311;BME280;35177;45.900;5.946;2023-02-17T03:11:35;98905.72;;;-2.51;100.00
49311;BME280;35177;45.900;5.946;2023-02-17T03:14:11;98910.13;;;-2.50;100.00
49311;BME280;35177;45.900;5.946;2023-02-17T03:16:38;98902.13;;;-2.58;100.00
49311;BME280;35177;45.900;5.946;2023-02-17T03:19:06;98898.81;;;-2.82;100.00
49311;BME280;35177;45.900;5.946;2023-02-17T03:24:12;98913.25;;;-2.53;100.00
49311;BME280;35177;45.900;5.946;2023-02-17T03:26:37;98896.78;;;-2.45;100.00
49311;BME280;35177;45.900;5.946;2023-02-17T03:29:03;98910.56;;;-2.46;100.00
49311;BME280;35177;45.900;5.946;2023-02-17T03:31:29;98906.91;;;-2.32;100.00
49311;BME280;35177;45.900;5.946;2023-02-17T03:33:54;98904.66;;;-2.56;100.00
49311;BME280;35177;45.900;5.946;2023-02-17T03:36:20;98900.47;;;-2.59;100.00
49311;BME280;35177;45.900;5.946;2023-02-17T03:38:45;98905.13;;;-2.46;100.00
49311;BME280;35177;45.900;5.946;2023-02-17T03:41:11;98898.34;;;-2.57;100.00
49311;BME280;35177;45.900;5.946;2023-02-17T03:43:36;98896.25;;;-2.62;100.00
49311;BME280;35177;45.900;5.946;2023-02-17T03:46:02;98909.09;;;-2.77;100.00
49311;BME280;35177;45.900;5.946;2023-02-17T03:48:27;98905.69;;;-2.86;100.00
49311;BME280;35177;45.900;5.946;2023-02-17T03:50:53;98910.50;;;-3.10;100.00
49311;BME280;35177;45.900;5.946;2023-02-17T03:53:19;98910.34;;;-3.01;100.00
49311;BME280;35177;45.900;5.946;2023-02-17T03:55:45;98904.66;;;-3.07;100.00
49311;BME280;35177;45.900;5.946;2023-02-17T03:58:10;98910.91;;;-3.06;100.00
49311;BME280;35177;45.900;5.946;2023-02-17T04:00:36;98915.06;;;-2.88;100.00
49311;BME280;35177;45.900;5.946;2023-02-17T04:03:01;98911.88;;;-2.92;100.00
49311;BME280;35177;45.900;5.946;2023-02-17T04:05:27;98915.56;;;-2.78;100.00
49311;BME280;35177;45.900;5.946;2023-02-17T04:07:52;98921.84;;;-2.78;100.00
49311;BME280;35177;45.900;5.946;2023-02-17T04:10:18;98916.59;;;-2.51;100.00
49311;BME280;35177;45.900;5.946;2023-02-17T04:12:43;98930.09;;;-2.36;100.00
49311;BME280;35177;45.900;5.946;2023-02-17T04:15:09;98919.38;;;-2.44;100.00
49311;BME280;35177;45.900;5.946;2023-02-17T04:17:36;98925.41;;;-2.49;100.00
49311;BME280;35177;45.900;5.946;2023-02-17T04:20:04;98929.44;;;-2.66;100.00
49311;BME280;35177;45.900;5.946;2023-02-17T04:22:30;98929.53;;;-2.81;100.00
49311;BME280;35177;45.900;5.946;2023-02-17T04:24:55;98924.59;;;-2.71;100.00
49311;BME280;35177;45.900;5.946;2023-02-17T04:27:21;98933.09;;;-2.52;100.00
49311;BME280;35177;45.900;5.946;2023-02-17T04:29:46;98935.44;;;-2.49;100.00
49311;BME280;35177;45.900;5.946;2023-02-17T04:32:12;98931.53;;;-2.40;100.00
49311;BME280;35177;45.900;5.946;2023-02-17T04:34:38;98924.69;;;-2.29;100.00
49311;BME280;35177;45.900;5.946;2023-02-17T04:37:03;98924.50;;;-2.28;100.00
49311;BME280;35177;45.900;5.946;2023-02-17T04:39:29;98925.63;;;-2.15;100.00
49311;BME280;35177;45.900;5.946;2023-02-17T04:41:54;98931.50;;;-2.12;100.00
49311;BME280;35177;45.900;5.946;2023-02-17T04:44:20;98935.31;;;-2.06;100.00
49311;BME280;35177;45.900;5.946;2023-02-17T04:46:45;98927.53;;;-2.09;100.00
49311;BME280;35177;45.900;5.946;2023-02-17T04:49:11;98934.88;;;-2.10;100.00
49311;BME280;35177;45.900;5.946;2023-02-17T04:51:36;98935.38;;;-1.92;100.00
49311;BME280;35177;45.900;5.946;2023-02-17T04:54:02;98928.53;;;-1.82;100.00
49311;BME280;35177;45.900;5.946;2023-02-17T04:56:27;98932.75;;;-1.72;100.00
49311;BME280;35177;45.900;5.946;2023-02-17T04:58:53;98928.81;;;-1.63;100.00
49311;BME280;35177;45.900;5.946;2023-02-17T05:01:18;98926.03;;;-1.76;100.00
49311;BME280;35177;45.900;5.946;2023-02-17T05:03:44;98929.59;;;-1.76;100.00
49311;BME280;35177;45.900;5.946;2023-02-17T05:06:09;98925.22;;;-1.70;100.00
49311;BME280;35177;45.900;5.946;2023-02-17T05:08:35;98923.59;;;-1.65;100.00
49311;BME280;35177;45.900;5.946;2023-02-17T05:11:00;98922.44;;;-1.90;100.00
49311;BME280;35177;45.900;5.946;2023-02-17T05:13:26;98927.44;;;-1.87;100.00
49311;BME280;35177;45.900;5.946;2023-02-17T05:15:52;98923.84;;;-1.95;100.00
49311;BME280;35177;45.900;5.946;2023-02-17T05:18:17;98929.72;;;-1.98;100.00
49311;BME280;35177;45.900;5.946;2023-02-17T05:20:43;98925.63;;;-2.15;100.00
49311;BME280;35177;45.900;5.946;2023-02-17T05:23:09;98938.50;;;-2.31;100.00
49311;BME280;35177;45.900;5.946;2023-02-17T05:25:34;98934.56;;;-2.21;100.00
49311;BME280;35177;45.900;5.946;2023-02-17T05:28:00;98944.41;;;-2.20;100.00
49311;BME280;35177;45.900;5.946;2023-02-17T05:30:25;98935.44;;;-2.21;100.00
49311;BME280;35177;45.900;5.946;2023-02-17T05:32:51;98936.69;;;-2.17;100.00
49311;BME280;35177;45.900;5.946;2023-02-17T05:35:16;98937.19;;;-2.35;100.00
49311;BME280;35177;45.900;5.946;2023-02-17T05:37:42;98941.91;;;-2.22;100.00
49311;BME280;35177;45.900;5.946;2023-02-17T05:40:08;98929.56;;;-2.18;100.00
49311;BME280;35177;45.900;5.946;2023-02-17T05:42:33;98928.78;;;-2.12;100.00
49311;BME280;35177;45.900;5.946;2023-02-17T05:44:59;98931.03;;;-2.22;100.00
49311;BME280;35177;45.900;5.946;2023-02-17T05:47:24;98931.25;;;-2.17;100.00
49311;BME280;35177;45.900;5.946;2023-02-17T05:49:50;98939.63;;;-2.47;100.00
49311;BME280;35177;45.900;5.946;2023-02-17T05:52:15;98944.63;;;-2.50;100.00
49311;BME280;35177;45.900;5.946;2023-02-17T05:54:42;98945.75;;;-2.66;100.00
49311;BME280;35177;45.900;5.946;2023-02-17T05:57:08;98948.28;;;-2.65;100.00
49311;BME280;35177;45.900;5.946;2023-02-17T05:59:33;98947.03;;;-2.62;100.00
49311;BME280;35177;45.900;5.946;2023-02-17T06:01:59;98948.94;;;-2.63;100.00
49311;BME280;35177;45.900;5.946;2023-02-17T06:04:24;98952.25;;;-2.61;100.00
49311;BME280;35177;45.900;5.946;2023-02-17T06:06:50;98952.53;;;-2.55;100.00
49311;BME280;35177;45.900;5.946;2023-02-17T06:09:16;98952.81;;;-2.72;100.00
49311;BME280;35177;45.900;5.946;2023-02-17T06:11:42;98950.94;;;-2.71;100.00
49311;BME280;35177;45.900;5.946;2023-02-17T06:14:07;98950.22;;;-2.80;100.00
49311;BME280;35177;45.900;5.946;2023-02-17T06:16:33;98951.19;;;-2.88;100.00
49311;BME280;35177;45.900;5.946;2023-02-17T06:18:58;98949.47;;;-2.96;100.00
49311;BME280;35177;45.900;5.946;2023-02-17T06:21:27;98949.59;;;-2.82;100.00
49311;BME280;35177;45.900;5.946;2023-02-17T06:23:52;98951.66;;;-2.84;100.00
49311;BME280;35177;45.900;5.946;2023-02-17T06:26:18;98949.16;;;-2.58;100.00
49311;BME280;35177;45.900;5.946;2023-02-17T06:28:43;98948.50;;;-2.60;100.00
49311;BME280;35177;45.900;5.946;2023-02-17T06:31:09;98943.06;;;-2.31;100.00
49311;BME280;35177;45.900;5.946;2023-02-17T06:33:34;98939.22;;;-2.15;100.00
49311;BME280;35177;45.900;5.946;2023-02-17T06:36:00;98950.66;;;-2.27;100.00
49311;BME280;35177;45.900;5.946;2023-02-17T06:38:26;98957.56;;;-2.24;100.00
49311;BME280;35177;45.900;5.946;2023-02-17T06:40:52;98954.22;;;-2.26;100.00
49311;BME280;35177;45.900;5.946;2023-02-17T06:43:18;98963.00;;;-2.24;100.00
49311;BME280;35177;45.900;5.946;2023-02-17T06:45:44;98960.53;;;-2.19;100.00
49311;BME280;35177;45.900;5.946;2023-02-17T06:48:10;98964.94;;;-2.18;100.00
49311;BME280;35177;45.900;5.946;2023-02-17T06:50:35;98966.84;;;-2.12;100.00
49311;BME280;35177;45.900;5.946;2023-02-17T06:53:01;98977.03;;;-2.20;100.00
49311;BME280;35177;45.900;5.946;2023-02-17T06:55:26;98976.31;;;-2.36;100.00
49311;BME280;35177;45.900;5.946;2023-02-17T06:57:52;98976.44;;;-2.22;100.00
49311;BME280;35177;45.900;5.946;2023-02-17T07:00:18;98973.72;;;-2.16;100.00
49311;BME280;35177;45.900;5.946;2023-02-17T07:02:43;98977.34;;;-2.08;100.00
49311;BME280;35177;45.900;5.946;2023-02-17T07:05:09;98974.72;;;-1.95;100.00
49311;BME280;35177;45.900;5.946;2023-02-17T07:07:34;98980.31;;;-1.68;100.00
49311;BME280;35177;45.900;5.946;2023-02-17T07:10:00;98975.72;;;-1.61;100.00
49311;BME280;35177;45.900;5.946;2023-02-17T07:12:26;98982.22;;;-1.62;100.00
49311;BME280;35177;45.900;5.946;2023-02-17T07:14:52;98991.66;;;-1.51;100.00
49311;BME280;35177;45.900;5.946;2023-02-17T07:17:18;98983.63;;;-1.24;100.00
49311;BME280;35177;45.900;5.946;2023-02-17T07:19:43;98981.97;;;-1.19;100.00
49311;BME280;35177;45.900;5.946;2023-02-17T07:22:09;98981.53;;;-1.16;100.00
49311;BME280;35177;45.900;5.946;2023-02-17T07:24:34;98986.63;;;-0.92;100.00
49311;BME280;35177;45.900;5.946;2023-02-17T07:27:00;98990.84;;;-0.76;100.00
49311;BME280;35177;45.900;5.946;2023-02-17T07:29:26;98982.06;;;-0.72;100.00
49311;BME280;35177;45.900;5.946;2023-02-17T07:31:52;98995.72;;;-0.65;100.00
49311;BME280;35177;45.900;5.946;2023-02-17T07:34:17;98989.00;;;-0.62;100.00
49311;BME280;35177;45.900;5.946;2023-02-17T07:36:43;98992.53;;;-0.82;100.00
49311;BME280;35177;45.900;5.946;2023-02-17T07:39:08;98997.56;;;-0.86;100.00
49311;BME280;35177;45.900;5.946;2023-02-17T07:41:34;99000.31;;;-0.72;100.00
49311;BME280;35177;45.900;5.946;2023-02-17T07:43:59;99001.38;;;-0.40;100.00
49311;BME280;35177;45.900;5.946;2023-02-17T07:46:25;98996.56;;;-0.18;100.00
49311;BME280;35177;45.900;5.946;2023-02-17T07:48:51;98992.53;;;0.12;100.00
49311;BME280;35177;45.900;5.946;2023-02-17T07:51:20;98983.19;;;0.46;100.00
49311;BME280;35177;45.900;5.946;2023-02-17T07:53:46;98989.56;;;0.86;100.00
49311;BME280;35177;45.900;5.946;2023-02-17T07:56:14;98997.09;;;1.29;100.00
49311;BME280;35177;45.900;5.946;2023-02-17T07:58:41;99000.38;;;1.44;100.00
49311;BME280;35177;45.900;5.946;2023-02-17T08:03:33;99003.06;;;1.19;100.00
49311;BME280;35177;45.900;5.946;2023-02-17T08:05:59;99011.25;;;0.80;100.00
49311;BME280;35177;45.900;5.946;2023-02-17T08:08:25;99003.94;;;0.68;100.00
49311;BME280;35177;45.900;5.946;2023-02-17T08:11:11;99010.66;;;0.72;100.00
49311;BME280;35177;45.900;5.946;2023-02-17T08:13:55;99012.75;;;0.70;100.00
49311;BME280;35177;45.900;5.946;2023-02-17T08:16:21;99020.47;;;0.86;100.00
49311;BME280;35177;45.900;5.946;2023-02-17T08:18:46;99014.81;;;0.81;100.00
49311;BME280;35177;45.900;5.946;2023-02-17T08:21:12;99012.47;;;0.85;100.00
49311;BME280;35177;45.900;5.946;2023-02-17T08:23:37;99017.69;;;0.93;100.00
49311;BME280;35177;45.900;5.946;2023-02-17T08:26:03;99011.53;;;1.04;100.00
49311;BME280;35177;45.900;5.946;2023-02-17T08:28:29;99011.94;;;1.47;100.00
49311;BME280;35177;45.900;5.946;2023-02-17T08:30:54;99008.47;;;2.34;100.00
49311;BME280;35177;45.900;5.946;2023-02-17T08:33:20;98998.47;;;3.26;100.00
49311;BME280;35177;45.900;5.946;2023-02-17T08:35:47;98999.38;;;3.50;100.00
49311;BME280;35177;45.900;5.946;2023-02-17T08:38:12;99004.41;;;3.53;100.00
49311;BME280;35177;45.900;5.946;2023-02-17T08:40:38;99000.06;;;4.11;100.00
49311;BME280;35177;45.900;5.946;2023-02-17T08:43:06;98996.00;;;4.49;100.00
49311;BME280;35177;45.900;5.946;2023-02-17T08:45:32;98997.94;;;4.49;100.00
49311;BME280;35177;45.900;5.946;2023-02-17T08:47:58;98999.72;;;4.08;100.00
49311;BME280;35177;45.900;5.946;2023-02-17T08:50:23;98991.97;;;4.40;100.00
49311;BME280;35177;45.900;5.946;2023-02-17T08:52:49;99000.75;;;3.71;100.00
49311;BME280;35177;45.900;5.946;2023-02-17T08:55:15;98998.78;;;2.87;100.00
49311;BME280;35177;45.900;5.946;2023-02-17T08:57:43;99004.78;;;3.68;100.00
49311;BME280;35177;45.900;5.946;2023-02-17T09:00:09;98998.16;;;3.76;100.00
49311;BME280;35177;45.900;5.946;2023-02-17T09:02:35;99001.13;;;3.86;100.00
49311;BME280;35177;45.900;5.946;2023-02-17T09:05:03;98996.41;;;4.06;100.00
49311;BME280;35177;45.900;5.946;2023-02-17T09:07:28;98991.03;;;4.87;100.00
49311;BME280;35177;45.900;5.946;2023-02-17T09:09:54;98999.00;;;5.29;100.00
49311;BME280;35177;45.900;5.946;2023-02-17T09:12:19;98995.53;;;6.14;100.00
49311;BME280;35177;45.900;5.946;2023-02-17T09:14:45;99002.06;;;6.25;100.00
49311;BME280;35177;45.900;5.946;2023-02-17T09:17:10;98991.41;;;6.73;100.00
49311;BME280;35177;45.900;5.946;2023-02-17T09:19:39;98991.75;;;6.37;100.00
49311;BME280;35177;45.900;5.946;2023-02-17T09:22:05;98991.66;;;7.16;100.00
49311;BME280;35177;45.900;5.946;2023-02-17T09:24:31;98995.47;;;7.10;100.00
49311;BME280;35177;45.900;5.946;2023-02-17T09:26:58;99002.53;;;7.50;100.00
49311;BME280;35177;45.900;5.946;2023-02-17T09:29:23;98995.81;;;8.38;100.00
49311;BME280;35177;45.900;5.946;2023-02-17T09:31:49;98996.81;;;9.23;100.00
49311;BME280;35177;45.900;5.946;2023-02-17T09:34:14;98994.41;;;9.52;97.93
49311;BME280;35177;45.900;5.946;2023-02-17T09:36:40;98996.97;;;10.47;87.26
49311;BME280;35177;45.900;5.946;2023-02-17T09:39:06;98997.41;;;10.95;77.33
49311;BME280;35177;45.900;5.946;2023-02-17T09:41:48;98998.19;;;11.01;64.19
49311;BME280;35177;45.900;5.946;2023-02-17T09:46:49;98994.84;;;12.04;59.71
49311;BME280;35177;45.900;5.946;2023-02-17T09:49:20;98987.69;;;11.93;61.55
49311;BME280;35177;45.900;5.946;2023-02-17T09:55:03;98997.72;;;13.06;56.33
49311;BME280;35177;45.900;5.946;2023-02-17T09:57:34;98992.75;;;13.27;56.19
49311;BME280;35177;45.900;5.946;2023-02-17T10:00:11;98995.69;;;13.36;54.71
49311;BME280;35177;45.900;5.946;2023-02-17T10:02:46;98994.69;;;13.51;52.84
49311;BME280;35177;45.900;5.946;2023-02-17T10:05:17;98990.75;;;13.52;50.36
49311;BME280;35177;45.900;5.946;2023-02-17T10:10:45;98997.84;;;13.63;47.89
49311;BME280;35177;45.900;5.946;2023-02-17T10:13:16;98997.31;;;13.80;47.46
49311;BME280;35177;45.900;5.946;2023-02-17T10:15:44;98994.16;;;14.20;44.91
49311;BME280;35177;45.900;5.946;2023-02-17T10:18:25;99008.78;;;14.31;45.75
49311;BME280;35177;45.900;5.946;2023-02-17T10:21:02;99009.78;;;14.40;44.76
49311;BME280;35177;45.900;5.946;2023-02-17T10:23:32;99002.47;;;13.06;45.70
49311;BME280;35177;45.900;5.946;2023-02-17T10:29:12;99001.25;;;11.60;51.69
49311;BME280;35177;45.900;5.946;2023-02-17T10:31:51;98995.47;;;11.90;49.77
49311;BME280;35177;45.900;5.946;2023-02-17T10:39:51;98989.00;;;13.94;46.82
49311;BME280;35177;45.900;5.946;2023-02-17T10:42:37;98981.09;;;14.82;45.52
49311;BME280;35177;45.900;5.946;2023-02-17T10:45:05;98987.88;;;14.14;44.43
49311;BME280;35177;45.900;5.946;2023-02-17T10:47:35;98993.31;;;13.87;45.95
49311;BME280;35177;45.900;5.946;2023-02-17T10:50:05;98987.50;;;14.35;42.45
49311;BME280;35177;45.900;5.946;2023-02-17T10:52:37;98983.47;;;14.74;42.09
49311;BME280;35177;45.900;5.946;2023-02-17T10:55:38;98977.47;;;14.01;45.93
49311;BME280;35177;45.900;5.946;2023-02-17T11:00:55;98984.34;;;14.23;43.21
49311;BME280;35177;45.900;5.946;2023-02-17T11:03:26;98978.00;;;13.65;45.60
49311;BME280;35177;45.900;5.946;2023-02-17T11:05:59;98964.50;;;13.72;45.00
49311;BME280;35177;45.900;5.946;2023-02-17T11:11:21;98952.94;;;13.98;43.72
49311;BME280;35177;45.900;5.946;2023-02-17T11:16:27;98949.84;;;13.23;45.22
49311;BME280;35177;45.900;5.946;2023-02-17T11:18:54;98949.16;;;13.12;45.57
49311;BME280;35177;45.900;5.946;2023-02-17T11:21:20;98944.72;;;13.30;45.46
49311;BME280;35177;45.900;5.946;2023-02-17T11:23:55;98939.06;;;13.36;44.38
49311;BME280;35177;45.900;5.946;2023-02-17T11:26:25;98934.81;;;13.81;43.61
49311;BME280;35177;45.900;5.946;2023-02-17T11:28:51;98924.84;;;13.37;44.40
49311;BME280;35177;45.900;5.946;2023-02-17T11:31:29;98914.91;;;14.02;44.48
49311;BME280;35177;45.900;5.946;2023-02-17T11:33:55;98916.13;;;13.44;43.69
49311;BME280;35177;45.900;5.946;2023-02-17T11:36:30;98910.81;;;13.23;44.74
49311;BME280;35177;45.900;5.946;2023-02-17T11:38:56;98906.91;;;13.81;45.34
49311;BME280;35177;45.900;5.946;2023-02-17T11:41:22;98905.03;;;14.38;45.30
49311;BME280;35177;45.900;5.946;2023-02-17T11:43:53;98905.03;;;14.24;47.41
49311;BME280;35177;45.900;5.946;2023-02-17T11:46:44;98897.69;;;13.81;46.57
49311;BME280;35177;45.900;5.946;2023-02-17T12:00:21;98868.72;;;13.44;48.07
49311;BME280;35177;45.900;5.946;2023-02-17T12:11:07;98864.44;;;13.98;43.03
49311;BME280;35177;45.900;5.946;2023-02-17T12:14:12;98854.38;;;14.30;43.77
49311;BME280;35177;45.900;5.946;2023-02-17T12:22:51;98845.47;;;14.42;44.14
49311;BME280;35177;45.900;5.946;2023-02-17T12:30:59;98832.50;;;13.91;47.83
49311;BME280;35177;45.900;5.946;2023-02-17T12:33:44;98832.34;;;14.43;47.74
49311;BME280;35177;45.900;5.946;2023-02-17T12:36:14;98817.13;;;14.35;47.05
49311;BME280;35177;45.900;5.946;2023-02-17T12:39:04;98820.44;;;14.37;45.99
49311;BME280;35177;45.900;5.946;2023-02-17T12:41:39;98807.94;;;14.35;45.52
49311;BME280;35177;45.900;5.946;2023-02-17T12:44:11;98812.47;;;14.17;46.68
49311;BME280;35177;45.900;5.946;2023-02-17T12:46:40;98811.66;;;14.16;47.10
49311;BME280;35177;45.900;5.946;2023-02-17T12:49:24;98803.28;;;14.16;50.13
49311;BME280;35177;45.900;5.946;2023-02-17T12:51:59;98806.78;;;14.08;49.60
49311;BME280;35177;45.900;5.946;2023-02-17T12:54:39;98795.22;;;14.28;51.27
49311;BME280;35177;45.900;5.946;2023-02-17T12:57:19;98790.03;;;14.22;48.67
49311;BME280;35177;45.900;5.946;2023-02-17T12:59:48;98784.63;;;14.53;49.87
49311;BME280;35177;45.900;5.946;2023-02-17T13:04:43;98779.47;;;14.46;51.96
49311;BME280;35177;45.900;5.946;2023-02-17T13:07:22;98776.38;;;14.48;49.09
49311;BME280;35177;45.900;5.946;2023-02-17T13:09:53;98772.31;;;14.54;51.34
49311;BME280;35177;45.900;5.946;2023-02-17T13:14:50;98779.38;;;14.24;51.48
49311;BME280;35177;45.900;5.946;2023-02-17T13:19:47;98770.16;;;14.65;48.64
49311;BME280;35177;45.900;5.946;2023-02-17T13:22:23;98769.75;;;14.58;48.58
49311;BME280;35177;45.900;5.946;2023-02-17T13:24:53;98770.22;;;14.60;48.53
49311;BME280;35177;45.900;5.946;2023-02-17T13:30:06;98761.22;;;14.63;51.37
49311;BME280;35177;45.900;5.946;2023-02-17T13:33:47;98763.22;;;14.62;50.44
49311;BME280;35177;45.900;5.946;2023-02-17T13:35:48;98762.91;;;14.64;50.34
49311;BME280;35177;45.900;5.946;2023-02-17T13:38:31;98754.63;;;14.45;48.77
49311;BME280;35177;45.900;5.946;2023-02-17T13:41:01;98759.81;;;14.52;48.09
49311;BME280;35177;45.900;5.946;2023-02-17T13:43:29;98759.38;;;14.58;48.79
49311;BME280;35177;45.900;5.946;2023-02-17T13:46:00;98751.94;;;14.54;50.14
49311;BME280;35177;45.900;5.946;2023-02-17T13:48:34;98751.31;;;14.57;49.19
49311;BME280;35177;45.900;5.946;2023-02-17T13:51:05;98746.44;;;14.76;48.56
49311;BME280;35177;45.900;5.946;2023-02-17T13:53:35;98747.03;;;14.87;49.34
49311;BME280;35177;45.900;5.946;2023-02-17T13:56:23;98744.44;;;14.77;49.99
49311;BME280;35177;45.900;5.946;2023-02-17T13:58:50;98746.25;;;14.96;51.12
49311;BME280;35177;45.900;5.946;2023-02-17T14:01:18;98745.31;;;15.00;51.59
49311;BME280;35177;45.900;5.946;2023-02-17T14:03:51;98745.25;;;14.91;50.54
49311;BME280;35177;45.900;5.946;2023-02-17T14:08:52;98748.22;;;15.18;51.39
49311;BME280;35177;45.900;5.946;2023-02-17T14:11:22;98752.66;;;15.33;50.16
49311;BME280;35177;45.900;5.946;2023-02-17T14:13:49;98744.13;;;15.38;52.36
49311;BME280;35177;45.900;5.946;2023-02-17T14:19:01;98755.22;;;15.06;50.57
49311;BME280;35177;45.900;5.946;2023-02-17T14:21:27;98748.38;;;14.76;50.11
49311;BME280;35177;45.900;5.946;2023-02-17T14:23:54;98747.03;;;14.87;51.31
49311;BME280;35177;45.900;5.946;2023-02-17T14:26:28;98750.03;;;14.91;51.07
49311;BME280;35177;45.900;5.946;2023-02-17T14:28:58;98745.44;;;14.95;52.17
49311;BME280;35177;45.900;5.946;2023-02-17T14:31:24;98748.56;;;14.93;52.00
49311;BME280;35177;45.900;5.946;2023-02-17T14:33:59;98746.91;;;14.92;53.06
49311;BME280;35177;45.900;5.946;2023-02-17T14:36:31;98751.47;;;14.88;50.67
49311;BME280;35177;45.900;5.946;2023-02-17T14:38:58;98748.91;;;14.78;51.66
49311;BME280;35177;45.900;5.946;2023-02-17T14:41:24;98745.78;;;14.80;51.04